SAMX41
METAR MMAA 090648Z 02002KT 6SM SCT100 26/24 A2987 RMK 8/030 HZY ISOL CI=
METAR MMBT 090040Z 00000KT 8SM FEW030 SCT220 27/23 A2988 RMK 8/102 HZY=
METAR MMCB 090055Z 00000KT 10SM SKC 22/08 A3009=
METAR MMIT ###########################
METAR MMMX 090647Z 00000KT 10SM SKC 16/03 A3036 NOSIG RMK HZY=
METAR MMSM 082046Z 30004KT 6SM SKC 24/M01 A3030 RMK HZY DU=
METAR MMOX 090142Z 13004KT 7SM SKC 22/02 A3021=
METAR MMPA 090040Z 09010KT 5SM SKC 25/20 A2992 RMK HZY ISOL CU=
METAR MMPB 090240Z 19003KT 8SM SKC 14/04 A3035 RMK HZY=
METAR MMPS 090342Z 07005KT 9SM SKC 26/19 A2994 RMK HZY=
METAR MMQT 090640Z 30003KT 7SM SKC 07/00 A3033=
METAR MMTM 090440Z 13006KT 6SM SCT012 BKN200 25/23 A2996 RMK 8/108 BR=
METAR MMTO 090654Z 07003KT 6SM SKC 06/03 A3043 RMK HZY=
METAR MMVR 090643Z 00000KT 4SM FEW010 23/23 A2995 RMK 8/100 BR=
METAR MMZH 090240Z 00000KT 6SM FEW090 27/22 A2993 RMK SLP127 52017 911 8/030 HZY CI=

SAMX42
METAR MMAS 090452Z 08004KT 10SM SKC 11/M05 A3029=
METAR MMEP 090042Z 36005KT 12SM SKC 20/16 A3004=
METAR MMGL 090640Z 00000KT 10SM SKC 09/04 A3022=
METAR MMIA 090240Z 00000KT 8SM SKC 22/16 A3004=
METAR MMLO 090543Z 00000KT 8SM SKC 11/00 A3032 RMK SLP153 52002 951 CI=
METAR MMMM 090641Z 00000KT 7SM SKC 09/05 A3028 RMK HZY=
METAR MMPN 090042Z 00000KT 15SM SKC 22/12 A3018 RMK HZY=
METAR MMPR 090448Z 02003KT 12SM SKC 20/17 A2995 RMK MSGTX MMMX=
METAR MMSP 090641Z 00000KT 5SM SKC 07/M01 A3025 RMK HZ FU OVR STN=
METAR MMZC 090551Z 00000KT 10SM SKC 08/M04 A3030=
METAR MMZO 090140Z 02006KT 8SM SKC 25/20 A2984=

SAMX43
METAR MMCL 090543Z 03005KT 10SM SKC 18/10 A2995 RMK SLP142 52005 953 FU HZY=
METAR MMCN 090240Z 06003KT 10SM BKN100 18/07 A2995 RMK SLP143 8/030 HZY=
METAR MMDO 082345Z 21012KT 12SM SCT200 23/M09 A3016 RMK SLP120 52002 953 8/001=
METAR MMGM 082250Z 00000KT 10SM BKN040 OVC200 24/17 A2991 RMK 8/5//=
METAR MMHO 090640Z 00000KT 10SM SCT090 BKN100 OVC200 16/14 A2999 RMK 8/077 HZY=
METAR MMLM 090341Z 32004KT 10SM SCT100 18/06 A2999 RMK 8/030=
METAR MMLP 090558Z 00000KT 10SM SKC 17/08 A2999=
METAR MMLT 090140Z 00000KT 10SM SCT120 22/16 A2993 RMK 8/030=
METAR MMML 090653Z 00000KT 10SM SKC 14/04 A2991 RMK MSGTX MMMX=
METAR MMMZ 090643Z 00000KT 10SM SKC 16/13 A2994 RMK HZY=
METAR MMSD 090454Z 32005KT 12SM SKC 18/15 A3001=
METAR MMSL 090243Z 30006KT 7SM SKC 20/14 A3000=
METAR MMTJ 090641Z 00000KT 7SM OVC018 15/13 A3004 RMK 8/6// HZY=

SAMX44
METAR MMCE 090141Z 05008KT 7SM SKC 27/25 A2994 RMK HZY=
METAR MMCM 082341Z 11007KT 7SM SCT020 28/23 A2996 RMK SLP147 5//// 900 8/500=
METAR MMCP 090040Z 36005KT 7SM FEW070 27/25 A2995 RMK 8/030 HZY=
METAR MMCT ###########################
METAR MMCZ 090247Z 12003KT 7SM SKC 24/24 A3003 RMK SLP174 52012 904 SC=
METAR MMMD 090646Z 12007KT 7SM SKC 24/23 A3000 RMK CI=
METAR MMMT 090040Z 36010KT 7SM SKC 24/23 A2990=
METAR MMPQ 090045Z 00000KT 4SM FEW040 27/23 A2981 RMK 8/100 HZY=
METAR MMTG 090442Z 27003KT 8SM SCT300 24/20 A3000 RMK 8/002 ISOL AC=
METAR MMTP 090640Z 00000KT 10SM SKC 23/23 A2990 RMK HZY=
METAR MMUN 090646Z 09006KT 7SM FEW015 24/23 A3003 RMK 8/500=
METAR MMVA 090548Z 08008KT 6SM SCT060 25/23 A2993 RMK SLP134 57006 956 8/030 HZY=

SAMX45
METAR MMAN 090541Z 00000KT 8SM FEW015 17/15 A3001 RMK SLP/// 5//// 9// 8/500=
METAR MMCS 090346Z 00000KT 10SM SCT100 BKN200 12/M03 A3001 RMK 8/072=
METAR MMCU 090344Z 21005KT 10SM SCT090 BKN200 11/M01 A3008 RMK 8/072=
METAR MMCV 090042Z E18004KT 6SM FEW030 SCT100 25/17 A2994 RMK 8/510 HZ=
METAR MMIO 090553Z 18008KT 10SM SKC 15/07 A3019=
METAR MMMA 090140Z 07006KT 7SM BKN010 23/20 A2995 RMK 8/500 HZY=
METAR MMMV 090044Z 00000KT 10SM SCT200 21/08 A2991 RMK 8/002=
METAR MMMY 090640Z 00000KT 7SM OVC005 19/16 A2995 RMK 8/5// TWR VSBY=
METAR MMNL 090143Z 16008KT 10SM SKC 22/17 A2994 RMK MSGTX MMMX=
METAR MMPG 090040Z 12008KT 10SM SKC 22/03 A2993 RMK HZY=
METAR MMRX 090043Z 05006KT 6SM BKN020 22/18 A2995 RMK 8/500 HZY FU=
METAR MMTC 090351Z 00000KT 10SM SCT200 18/02 A3006 RMK 8/002=